Time;durP1;ratioP1;P1;durP2;ratioP2;P2;SDS_P1;SDS_P2;PMS_P1;PMS_P2;Temp;Humidity;BMP_temperature;BMP_pressure;BME280_temperature;BME280_humidity;BME280_pressure;Samples;Min_cycle;Max_cycle;Signal;HPM_P1;HPM_P2
2022/05/31 00:02:03;;;;;;;;;5.33;5.33;;;;;18.16;36.10;100411.34;5075121;27;45447;-69
2022/05/31 00:04:29;;;;;;;;;5.00;2.33;;;;;18.13;35.68;100407.09;5088255;27;45675;-68
2022/05/31 00:06:55;;;;;;;;;5.00;5.00;;;;;18.14;36.28;100410.63;5083248;27;45755;-68
2022/05/31 00:09:20;;;;;;;;;4.00;4.00;;;;;18.11;36.08;100406.38;5080680;27;45540;-67
2022/05/31 00:11:47;;;;;;;;;3.67;3.67;;;;;18.11;35.99;100406.38;5090625;27;45517;-68
2022/05/31 00:14:14;;;;;;;;;5.00;5.00;;;;;18.12;35.96;100412.53;5081827;27;45510;-69
2022/05/31 00:16:40;;;;;;;;;16.67;16.67;;;;;18.09;36.12;100409.13;5078014;27;45565;-68
2022/05/31 00:19:07;;;;;;;;;94.75;89.50;;;;;18.06;36.21;100401.38;5073517;28;45542;-69
2022/05/31 00:21:37;;;;;;;;;36.00;33.00;;;;;18.03;36.26;100395.41;5090117;27;45434;-65
2022/05/31 00:24:05;;;;;;;;;6.33;6.33;;;;;18.04;36.47;100394.44;5092855;27;45596;-68
2022/05/31 00:26:30;;;;;;;;;5.00;5.00;;;;;18.06;36.59;100401.38;5079847;27;46438;-69
2022/05/31 00:28:55;;;;;;;;;73.75;63.00;;;;;18.01;36.49;100392.00;5073243;28;45456;-70
2022/05/31 00:31:21;;;;;;;;;63.50;50.75;;;;;18.03;36.62;100393.59;5087187;27;45522;-65
2022/05/31 00:33:46;;;;;;;;;11.00;11.00;;;;;18.06;36.54;100393.38;5094154;27;45447;-69
2022/05/31 00:36:11;;;;;;;;;57.25;45.50;;;;;18.05;36.68;100398.78;5085393;27;45613;-69
2022/05/31 00:38:37;;;;;;;;;23.00;21.00;;;;;18.08;36.71;100404.78;5093830;27;45488;-70
2022/05/31 00:41:25;;;;;;;;;4.67;4.67;;;;;18.02;36.29;100409.66;5092129;27;45432;-69
2022/05/31 00:44:01;;;;;;;;;4.00;4.00;;;;;17.97;36.87;100401.97;5086635;27;45569;-62
2022/05/31 00:46:45;;;;;;;;;11.67;11.67;;;;;17.99;36.60;100409.88;5093095;27;46968;-60
2022/05/31 00:49:13;;;;;;;;;221.25;209.00;;;;;18.00;36.68;100411.56;5093566;27;45485;-63
2022/05/31 00:51:44;;;;;;;;;20.33;20.33;;;;;18.02;36.68;100412.31;5082748;27;45582;-64
2022/05/31 00:54:14;;;;;;;;;7.33;6.33;;;;;18.01;36.50;100405.31;5079383;27;45637;-70
2022/05/31 00:56:40;;;;;;;;;11.00;11.00;;;;;18.00;36.71;100399.13;5075700;27;47317;-62
2022/05/31 00:59:08;;;;;;;;;4.67;4.00;;;;;18.07;36.57;100407.53;5088569;27;45729;-63
2022/05/31 01:01:38;;;;;;;;;5.67;5.67;;;;;18.09;36.37;100403.81;5088118;27;45530;-62
2022/05/31 01:04:04;;;;;;;;;6.00;6.00;;;;;18.09;36.11;100402.97;5093595;27;45687;-62
2022/05/31 01:06:32;;;;;;;;;3.00;3.00;;;;;18.08;36.25;100398.56;5094799;27;46002;-62
2022/05/31 01:09:00;;;;;;;;;3.33;3.33;;;;;18.08;36.47;100395.91;5095359;27;45514;-62
2022/05/31 01:11:35;;;;;;;;;3.67;3.67;;;;;18.02;36.38;100385.72;5078509;27;45470;-62
2022/05/31 01:14:01;;;;;;;;;3.33;3.33;;;;;18.06;36.58;100401.38;5076696;28;45519;-62
2022/05/31 01:16:26;;;;;;;;;3.00;3.00;;;;;18.07;36.72;100396.88;5075858;28;46151;-62
2022/05/31 01:18:52;;;;;;;;;2.67;2.67;;;;;18.06;36.59;100392.53;5076010;28;45443;-61
2022/05/31 01:21:18;;;;;;;;;5.00;4.00;;;;;18.03;36.45;100395.41;5075709;28;45574;-62
2022/05/31 01:23:59;;;;;;;;;3.00;3.00;;;;;18.00;36.47;100401.81;5074474;28;45550;-62
2022/05/31 01:26:41;;;;;;;;;2.67;2.67;;;;;17.98;36.77;100397.53;5075566;28;46735;-62
2022/05/31 01:29:32;;;;;;;;;3.00;3.00;;;;;17.99;36.38;100400.06;5075618;28;45538;-62
2022/05/31 01:32:04;;;;;;;;;3.00;3.00;;;;;17.98;36.74;100395.72;5075625;28;45558;-62
2022/05/31 01:34:40;;;;;;;;;4.00;4.00;;;;;17.92;36.92;100385.50;5074369;28;45598;-62
2022/05/31 01:37:05;;;;;;;;;1.67;1.67;;;;;17.91;37.08;100388.28;5075601;28;45452;-62
2022/05/31 01:39:33;;;;;;;;;2.67;2.67;;;;;17.91;36.81;100385.59;5075483;28;45545;-62
2022/05/31 01:42:21;;;;;;;;;3.00;3.00;;;;;17.88;36.82;100387.50;5075772;28;45459;-63
2022/05/31 01:44:53;;;;;;;;;3.00;3.00;;;;;17.89;37.11;100388.38;5075645;28;45501;-62
2022/05/31 01:47:19;;;;;;;;;4.00;4.00;;;;;17.87;36.68;100391.16;5075190;28;46058;-62
2022/05/31 01:49:51;;;;;;;;;1.33;1.33;;;;;17.87;36.73;100388.50;5075388;28;45542;-62
2022/05/31 01:52:17;;;;;;;;;2.00;2.00;;;;;17.88;36.55;100392.00;5075693;28;45497;-62
2022/05/31 01:54:43;;;;;;;;;1.67;1.67;;;;;17.88;37.05;100392.84;5075547;28;45454;-62
2022/05/31 01:57:12;;;;;;;;;3.67;3.67;;;;;17.87;37.20;100388.50;5075385;27;46345;-62
2022/05/31 01:59:46;;;;;;;;;3.33;2.33;;;;;17.86;37.02;100388.56;5074877;28;45466;-62
2022/05/31 02:02:15;;;;;;;;;3.00;3.00;;;;;17.84;37.45;100394.03;5075714;28;45430;-62
2022/05/31 02:04:41;;;;;;;;;2.67;2.67;;;;;17.84;37.23;100401.16;5075186;28;45566;-61
2022/05/31 02:07:20;;;;;;;;;2.67;2.67;;;;;17.82;37.05;100403.06;5075142;27;46061;-62
2022/05/31 02:09:49;;;;;;;;;1.67;1.67;;;;;17.81;36.97;100396.03;5075185;28;45513;-62
2022/05/31 02:12:16;;;;;;;;;3.00;3.00;;;;;17.85;36.58;100402.84;5075433;28;45438;-62
2022/05/31 02:14:42;;;;;;;;;3.33;2.67;;;;;17.83;36.81;100402.94;5075214;28;45573;-62
2022/05/31 02:17:08;;;;;;;;;1.33;1.33;;;;;17.83;36.77;100402.09;5075058;28;46377;-62
2022/05/31 02:19:34;;;;;;;;;5.33;3.33;;;;;17.80;36.84;100397.00;5074855;27;45476;-62
2022/05/31 02:22:02;;;;;;;;;5.00;3.00;;;;;17.81;37.14;100399.56;5074960;28;45515;-62
2022/05/31 02:24:28;;;;;;;;;3.00;3.00;;;;;17.83;36.79;100396.78;5074976;28;45661;-62
2022/05/31 02:26:54;;;;;;;;;3.00;3.00;;;;;17.83;36.89;100394.13;5074737;28;45491;-62
2022/05/31 02:29:26;;;;;;;;;3.00;3.00;;;;;17.84;36.73;100399.34;5075033;27;45408;-62
2022/05/31 02:31:52;;;;;;;;;1.67;1.67;;;;;17.82;36.62;100398.59;5075166;28;45427;-62
2022/05/31 02:34:22;;;;;;;;;2.00;2.00;;;;;17.86;36.57;100396.56;5074907;28;45493;-62
2022/05/31 02:36:47;;;;;;;;;2.00;2.00;;;;;17.85;36.36;100398.38;5074665;28;46515;-61
2022/05/31 02:39:13;;;;;;;;;3.00;3.00;;;;;17.85;36.86;100400.19;5074385;27;45446;-63
2022/05/31 02:41:38;;;;;;;;;1.67;1.33;;;;;17.86;36.60;100408.03;5074643;28;45472;-63
2022/05/31 02:44:05;;;;;;;;;2.33;2.33;;;;;17.88;36.33;100405.28;5074681;28;45579;-62
2022/05/31 02:46:30;;;;;;;;;1.67;1.67;;;;;17.86;36.88;100407.19;5074283;28;46257;-63
2022/05/31 02:48:55;;;;;;;;;2.67;1.67;;;;;17.86;36.68;100397.41;5074555;28;45446;-62
2022/05/31 02:51:21;;;;;;;;;2.33;2.33;;;;;17.82;36.61;100390.59;5074603;28;45455;-63
2022/05/31 02:53:46;;;;;;;;;3.00;2.67;;;;;17.84;37.13;100391.38;5074804;28;45669;-63
2022/05/31 02:56:12;;;;;;;;;3.33;2.00;;;;;17.83;36.49;100394.13;5074714;27;45486;-64
2022/05/31 02:58:37;;;;;;;;;3.67;3.67;;;;;17.82;36.87;100390.59;5074478;28;45537;-64
2022/05/31 03:01:18;;;;;;;;;4.00;2.67;;;;;17.82;36.71;100392.44;5073146;28;46053;-61
2022/05/31 03:03:43;;;;;;;;;1.67;1.67;;;;;17.81;36.76;100383.59;5074960;28;45505;-62
2022/05/31 03:06:09;;;;;;;;;2.67;2.67;;;;;17.79;36.75;100377.53;5074530;28;45437;-62
2022/05/31 03:08:34;;;;;;;;;3.00;3.00;;;;;17.81;36.43;100380.06;5074556;28;45495;-62
2022/05/31 03:11:01;;;;;;;;;2.00;2.00;;;;;17.80;36.46;100379.22;5073489;28;45455;-62
2022/05/31 03:13:29;;;;;;;;;3.33;3.33;;;;;17.76;36.68;100380.38;5075104;28;45451;-62
2022/05/31 03:15:58;;;;;;;;;2.00;2.00;;;;;17.77;36.86;100392.69;5074510;28;45529;-62
2022/05/31 03:18:32;;;;;;;;;2.67;2.67;;;;;17.76;36.83;100396.31;5074725;28;45548;-62
2022/05/31 03:21:00;;;;;;;;;1.67;1.67;;;;;17.79;36.57;100395.31;5074796;28;45396;-61
2022/05/31 03:23:35;;;;;;;;;2.67;2.67;;;;;17.74;37.17;100394.72;5074862;28;45565;-62
2022/05/31 03:26:05;;;;;;;;;4.00;3.00;;;;;17.67;36.46;100400.44;5074250;28;45497;-61
2022/05/31 03:28:32;;;;;;;;;3.00;3.00;;;;;17.67;36.96;100391.63;5073820;28;45486;-62
2022/05/31 03:30:57;;;;;;;;;1.67;1.67;;;;;17.66;37.09;100390.78;5074772;28;45535;-62
2022/05/31 03:33:23;;;;;;;;;3.00;3.00;;;;;17.68;36.68;100385.38;5072879;28;45372;-62
2022/05/31 03:35:48;;;;;;;;;4.00;4.00;;;;;17.67;36.91;100383.63;5072738;28;45539;-62
2022/05/31 03:38:14;;;;;;;;;2.67;2.67;;;;;17.65;36.71;100383.75;5073749;28;45439;-63
2022/05/31 03:40:58;;;;;;;;;3.33;3.33;;;;;17.64;36.84;100384.69;5073922;28;45538;-63
2022/05/31 03:43:26;;;;;;;;;3.67;3.67;;;;;17.66;36.78;100387.28;5074120;28;45474;-63
2022/05/31 03:45:51;;;;;;;;;2.00;2.00;;;;;17.66;36.90;100389.94;5074017;28;45666;-62
2022/05/31 03:48:16;;;;;;;;;3.00;3.00;;;;;17.63;36.46;100391.00;5074158;28;45441;-63
2022/05/31 03:50:42;;;;;;;;;5.00;4.33;;;;;17.61;36.74;100389.38;5074072;28;45522;-62
2022/05/31 03:53:09;;;;;;;;;5.67;5.67;;;;;17.59;37.98;100392.13;5073924;28;45567;-62
2022/05/31 03:55:42;;;;;;;;;6.33;6.33;;;;;17.55;37.89;100395.97;5073445;28;46424;-62
2022/05/31 03:58:08;;;;;;;;;7.33;7.33;;;;;17.53;39.08;100405.00;5073427;28;45468;-63
2022/05/31 04:00:34;;;;;;;;;7.67;6.00;;;;;17.45;39.46;100406.38;5073745;28;45527;-62
2022/05/31 04:03:00;;;;;;;;;6.33;6.33;;;;;17.44;39.95;100403.84;5073659;28;45664;-63
2022/05/31 04:05:26;;;;;;;;;8.67;7.33;;;;;17.46;39.69;100404.56;5073282;28;46329;-62
2022/05/31 04:07:56;;;;;;;;;6.67;6.67;;;;;17.47;39.91;100394.78;5073429;28;45578;-64
2022/05/31 04:10:21;;;;;;;;;11.33;10.33;;;;;17.39;40.74;100393.50;5073895;28;45480;-62
2022/05/31 04:12:47;;;;;;;;;11.00;10.00;;;;;17.40;40.50;100397.00;5073556;28;45465;-62
2022/05/31 04:15:12;;;;;;;;;8.33;7.67;;;;;17.35;40.07;100389.31;5073406;28;46455;-62
2022/05/31 04:17:38;;;;;;;;;6.67;6.67;;;;;17.36;40.91;100388.38;5073470;28;45474;-63
2022/05/31 04:20:04;;;;;;;;;8.00;7.33;;;;;17.39;40.57;100385.53;5073595;28;45464;-62
2022/05/31 04:22:29;;;;;;;;;8.33;8.33;;;;;17.41;40.43;100383.63;5075535;28;45502;-64
2022/05/31 04:25:00;;;;;;;;;6.67;6.67;;;;;17.41;40.64;100385.44;5076616;28;46200;-64
2022/05/31 04:27:25;;;;;;;;;8.00;8.00;;;;;17.44;41.02;100390.53;5076794;27;45461;-63
2022/05/31 04:29:51;;;;;;;;;7.67;7.67;;;;;17.44;40.68;100380.75;5076818;28;45451;-63
2022/05/31 04:32:17;;;;;;;;;9.00;9.00;;;;;17.42;41.46;100385.31;5076777;28;45416;-63
2022/05/31 04:34:43;;;;;;;;;7.67;7.67;;;;;17.36;41.48;100380.41;5076579;28;46608;-63
2022/05/31 04:37:09;;;;;;;;;3.00;2.00;;;;;17.38;40.94;100388.28;5075032;28;45596;-63
2022/05/31 04:39:34;;;;;;;;;9.67;8.67;;;;;17.40;40.93;100384.56;5075193;28;45474;-63
2022/05/31 04:42:00;;;;;;;;;8.33;7.00;;;;;17.39;41.17;100396.16;5076355;28;45484;-63
2022/05/31 04:44:25;;;;;;;;;9.33;8.00;;;;;17.27;41.73;100396.97;5076447;28;45522;-64
2022/05/31 04:46:51;;;;;;;;;6.00;6.00;;;;;17.18;42.36;100400.25;5074700;27;45522;-61
2022/05/31 04:49:16;;;;;;;;;8.33;8.33;;;;;17.16;42.26;100405.66;5076481;28;45505;-62
2022/05/31 04:51:43;;;;;;;;;0.00;0.00;;;;;17.18;41.97;100402.91;5076454;28;45556;-61
2022/05/31 04:54:09;;;;;;;;;6.00;6.00;;;;;17.17;42.01;100401.22;5076273;28;46063;-62
2022/05/31 04:56:35;;;;;;;;;8.00;8.00;;;;;17.13;42.34;100405.00;5076484;28;45497;-62
2022/05/31 04:59:01;;;;;;;;;7.67;7.67;;;;;17.14;41.93;100396.06;5076424;28;45630;-62
2022/05/31 05:01:26;;;;;;;;;7.00;7.00;;;;;17.20;42.04;100401.84;5076507;28;45537;-62
2022/05/31 05:03:53;;;;;;;;;10.00;10.00;;;;;17.19;42.33;100407.25;5076404;28;45636;-62
2022/05/31 05:06:20;;;;;;;;;6.33;6.33;;;;;17.19;42.13;100404.59;5076300;28;45406;-62
2022/05/31 05:08:46;;;;;;;;;7.33;7.33;;;;;17.21;41.67;100413.31;5076434;28;45419;-62
2022/05/31 05:11:15;;;;;;;;;6.00;6.00;;;;;17.16;42.34;100415.44;5076427;28;45628;-63
2022/05/31 05:13:41;;;;;;;;;10.00;9.33;;;;;17.06;43.30;100414.31;5075529;28;46452;-62
2022/05/31 05:16:08;;;;;;;;;8.67;8.67;;;;;17.02;43.22;100411.03;5075899;27;45477;-62
2022/05/31 05:18:34;;;;;;;;;7.00;7.00;;;;;17.05;43.10;100413.47;5076257;28;45471;-62
2022/05/31 05:21:01;;;;;;;;;6.33;6.33;;;;;17.03;43.21;100415.38;5076186;28;45403;-62
2022/05/31 05:23:26;;;;;;;;;7.00;6.67;;;;;17.11;42.43;100425.50;5074556;28;45560;-63
2022/05/31 05:25:53;;;;;;;;;6.67;6.67;;;;;17.08;42.37;100426.56;5075634;28;45533;-63
2022/05/31 05:31:05;;;;;;;;;9.00;9.00;;;;;17.06;42.57;100431.13;5075873;28;45533;-63
2022/05/31 05:33:31;;;;;;;;;8.00;8.00;;;;;17.05;42.99;100432.06;5074835;28;46468;-63
2022/05/31 05:35:57;;;;;;;;;7.00;7.00;;;;;17.03;43.41;100430.47;5075731;28;45444;-62
2022/05/31 05:38:22;;;;;;;;;7.33;6.67;;;;;17.02;42.56;100426.13;5076017;28;45518;-62
2022/05/31 05:40:48;;;;;;;;;8.33;7.33;;;;;17.06;43.06;100424.94;5075996;28;45439;-62
2022/05/31 05:43:13;;;;;;;;;8.00;8.00;;;;;17.12;42.86;100429.88;5075924;28;46329;-62
2022/05/31 05:45:39;;;;;;;;;9.00;9.00;;;;;17.14;42.30;100436.81;5076135;28;45521;-63
2022/05/31 05:48:05;;;;;;;;;10.33;8.33;;;;;17.20;42.66;100433.75;5075897;28;45480;-63
2022/05/31 05:50:32;;;;;;;;;8.00;7.00;;;;;17.20;42.75;100438.22;5075971;28;45527;-62
2022/05/31 05:53:05;;;;;;;;;8.00;7.00;;;;;17.19;42.64;100440.03;5075294;28;45561;-63
2022/05/31 05:55:31;;;;;;;;;12.67;12.00;;;;;17.22;42.05;100445.13;5075488;28;45574;-63
2022/05/31 05:57:56;;;;;;;;;6.67;6.67;;;;;17.20;42.76;100436.41;5075517;28;45489;-62
2022/05/31 06:00:22;;;;;;;;;8.00;8.00;;;;;17.18;42.74;100440.94;5075560;28;45573;-62
2022/05/31 06:02:54;;;;;;;;;10.00;9.00;;;;;17.17;42.83;100447.22;5075309;28;45629;-62
2022/05/31 06:05:28;;;;;;;;;6.33;5.00;;;;;17.19;42.83;100447.13;5075918;28;45513;-62
2022/05/31 06:08:09;;;;;;;;;9.00;9.00;;;;;17.21;42.37;100447.88;5075799;28;45565;-63
2022/05/31 06:10:58;;;;;;;;;10.33;9.33;;;;;17.21;42.84;100450.53;5075616;28;45475;-63
2022/05/31 06:13:29;;;;;;;;;8.00;6.67;;;;;17.20;42.71;100443.53;5073967;28;47969;-62
2022/05/31 06:15:56;;;;;;;;;7.67;7.00;;;;;17.26;42.73;100448.44;5075350;28;45528;-62
2022/05/31 06:18:29;;;;;;;;;9.00;8.67;;;;;17.22;42.49;100452.22;5075637;28;45464;-62
2022/05/31 06:21:00;;;;;;;;;9.00;9.00;;;;;17.26;42.81;100440.44;5073405;28;45591;-62
2022/05/31 06:23:26;;;;;;;;;10.33;8.67;;;;;17.31;42.32;100448.13;5073553;28;46403;-62
2022/05/31 06:25:52;;;;;;;;;11.67;10.67;;;;;17.35;42.08;100447.81;5075143;28;45569;-62
2022/05/31 06:28:17;;;;;;;;;8.67;8.67;;;;;17.34;42.38;100447.94;5075256;28;45594;-61
2022/05/31 06:30:43;;;;;;;;;11.33;11.33;;;;;17.38;42.65;100447.63;5075429;28;45469;-62
2022/05/31 06:33:08;;;;;;;;;8.33;8.33;;;;;17.41;42.31;100450.09;5074761;28;45415;-63
2022/05/31 06:35:33;;;;;;;;;10.33;10.00;;;;;17.47;41.88;100456.78;5075537;28;45388;-62
2022/05/31 06:37:59;;;;;;;;;9.33;8.00;;;;;17.47;42.03;100459.47;5075183;28;45812;-62
2022/05/31 06:40:25;;;;;;;;;13.33;13.33;;;;;17.43;41.85;100452.63;5074790;28;45462;-63
2022/05/31 06:42:50;;;;;;;;;12.33;11.00;;;;;17.50;42.07;100456.59;5074506;28;45447;-62
2022/05/31 06:45:16;;;;;;;;;21.00;20.67;;;;;17.56;42.00;100460.66;5074281;28;45585;-63
2022/05/31 06:47:41;;;;;;;;;13.33;11.67;;;;;17.61;41.69;100459.38;5073077;28;45530;-62
2022/05/31 06:50:07;;;;;;;;;11.33;11.33;;;;;17.59;41.25;100447.13;5074255;28;45507;-63
2022/05/31 06:58:00;;;;;;;;;8.00;8.00;;;;;17.72;40.60;100465.78;5074641;28;45502;-63
2022/05/31 07:00:25;;;;;;;;;8.33;8.33;;;;;17.72;40.06;100460.47;5074374;28;45497;-62
2022/05/31 07:02:52;;;;;;;;;7.00;6.67;;;;;17.74;39.92;100462.06;5074325;28;46197;-62
2022/05/31 07:05:19;;;;;;;;;6.00;6.00;;;;;17.72;40.21;100465.78;5074575;28;45482;-63
2022/05/31 07:07:44;;;;;;;;;9.00;9.00;;;;;17.69;39.88;100458.88;5074492;28;45569;-63
2022/05/31 07:10:10;;;;;;;;;9.33;9.33;;;;;17.66;39.84;100462.59;5074152;28;45477;-63
2022/05/31 07:12:36;;;;;;;;;8.67;8.67;;;;;17.71;39.71;100466.75;5074014;28;46288;-62
2022/05/31 07:15:02;;;;;;;;;8.67;8.67;;;;;17.73;39.89;100468.38;5074008;28;45405;-62
2022/05/31 07:17:27;;;;;;;;;8.00;7.00;;;;;17.78;39.34;100466.22;5074206;28;45494;-62
2022/05/31 07:19:52;;;;;;;;;7.00;7.00;;;;;17.74;39.01;100475.38;5074383;28;45458;-63
2022/05/31 07:22:18;;;;;;;;;7.33;6.33;;;;;17.70;38.86;100465.03;5074027;28;46386;-62
2022/05/31 07:24:43;;;;;;;;;6.67;5.67;;;;;17.70;39.10;100457.06;5074059;28;45454;-63
2022/05/31 07:27:08;;;;;;;;;7.33;7.00;;;;;17.76;39.04;100473.47;5074191;28;45392;-63
2022/05/31 07:29:34;;;;;;;;;11.33;10.33;;;;;17.80;39.05;100468.81;5073944;28;45382;-63
2022/05/31 07:32:00;;;;;;;;;8.33;7.67;;;;;17.84;39.04;100465.00;5073865;27;46769;-63
2022/05/31 07:34:26;;;;;;;;;9.00;9.00;;;;;17.83;38.44;100474.78;5073790;28;45424;-63
2022/05/31 07:36:51;;;;;;;;;8.00;8.00;;;;;17.79;39.00;100467.13;5073830;28;45496;-63
2022/05/31 07:39:19;;;;;;;;;9.00;9.00;;;;;17.80;39.39;100472.31;5073664;28;45684;-63
2022/05/31 07:41:46;;;;;;;;;10.00;9.00;;;;;17.82;39.42;100474.91;5073440;28;45579;-63
2022/05/31 07:44:14;;;;;;;;;20.00;16.67;;;;;17.84;39.43;100479.16;5073703;28;45492;-63
2022/05/31 07:46:40;;;;;;;;;5.00;5.00;;;;;17.85;39.21;100472.88;5073642;28;45454;-63
2022/05/31 07:49:06;;;;;;;;;8.00;5.67;;;;;17.81;39.09;100486.47;5072315;28;45457;-63
2022/05/31 07:51:31;;;;;;;;;6.33;6.33;;;;;17.79;39.03;100480.44;5073535;28;45437;-62
2022/05/31 07:53:56;;;;;;;;;8.00;8.00;;;;;17.78;39.08;100484.00;5073545;28;45584;-63
2022/05/31 07:56:23;;;;;;;;;8.00;8.00;;;;;17.80;38.91;100479.47;5073245;28;45464;-63
2022/05/31 07:58:49;;;;;;;;;7.00;7.00;;;;;17.84;38.97;100481.81;5073733;28;45593;-63
2022/05/31 08:01:17;;;;;;;;;6.67;6.67;;;;;17.78;38.68;100482.19;5073743;28;45556;-63
2022/05/31 08:03:43;;;;;;;;;8.00;6.33;;;;;17.78;38.46;100482.19;5073152;28;45474;-63
2022/05/31 08:06:10;;;;;;;;;11.67;10.00;;;;;17.80;38.06;100480.31;5073340;28;45392;-63
2022/05/31 08:08:36;;;;;;;;;7.67;7.67;;;;;17.89;38.51;100478.81;5073384;28;45636;-63
2022/05/31 08:11:10;;;;;;;;;9.33;9.00;;;;;17.97;38.50;100475.66;5073237;28;46755;-63
2022/05/31 08:13:36;;;;;;;;;6.67;6.67;;;;;18.01;38.00;100483.31;5073011;28;45543;-64
2022/05/31 08:16:03;;;;;;;;;11.00;8.67;;;;;18.06;38.03;100477.69;5073275;28;45492;-64
2022/05/31 08:18:29;;;;;;;;;8.33;8.33;;;;;18.08;38.14;100476.63;5072842;28;45661;-62
2022/05/31 08:21:03;;;;;;;;;8.67;8.67;;;;;18.05;38.27;100475.97;5073078;28;45444;-63
2022/05/31 08:23:28;;;;;;;;;9.67;8.67;;;;;18.07;38.65;100480.22;5073260;28;45529;-62
2022/05/31 08:25:54;;;;;;;;;7.00;7.00;;;;;18.09;38.31;100478.31;5073427;28;45498;-62
2022/05/31 08:28:20;;;;;;;;;10.67;9.33;;;;;18.16;38.51;100478.78;5073181;28;45569;-62
2022/05/31 08:30:47;;;;;;;;;9.67;9.67;;;;;18.21;38.80;100473.09;5072654;28;46756;-62
2022/05/31 08:33:12;;;;;;;;;7.67;7.67;;;;;18.24;38.92;100476.44;5073102;28;45537;-62
2022/05/31 08:35:38;;;;;;;;;7.00;6.67;;;;;18.25;38.62;100475.47;5073054;28;45551;-62
2022/05/31 08:38:03;;;;;;;;;10.33;10.33;;;;;18.29;38.89;100481.41;5072876;28;45592;-62
2022/05/31 08:40:29;;;;;;;;;7.33;6.00;;;;;18.30;38.62;100472.50;5072659;28;46417;-62
2022/05/31 08:42:58;;;;;;;;;5.67;5.67;;;;;18.34;38.44;100479.28;5073330;28;45450;-62
2022/05/31 08:46:07;;;;;;;;;7.00;7.00;;;;;18.31;38.55;100475.03;5072911;28;45581;-63
2022/05/31 08:48:39;;;;;;;;;10.00;9.00;;;;;18.36;38.84;100480.03;5029986;28;45516;-62
2022/05/31 08:51:52;;;;;;;;;8.67;8.67;;;;;18.40;38.85;100481.50;5030122;28;46227;-62
2022/05/31 08:57:15;;;;;;;;;7.33;6.33;;;;;18.45;38.42;100478.53;5072580;28;45915;-62
2022/05/31 09:00:05;;;;;;;;;5.00;5.00;;;;;18.47;38.51;100480.13;5072682;28;45538;-62
2022/05/31 09:02:47;;;;;;;;;6.33;5.00;;;;;18.54;38.42;100480.56;5072322;28;45453;-62
2022/05/31 09:05:29;;;;;;;;;4.67;4.67;;;;;18.55;38.03;100469.78;5072334;28;45546;-61
2022/05/31 09:08:04;;;;;;;;;5.33;5.33;;;;;18.64;37.88;100478.94;5072635;28;45581;-62
2022/05/31 09:10:42;;;;;;;;;6.00;4.33;;;;;18.69;37.63;100474.13;5074359;28;45504;-62
2022/05/31 09:13:26;;;;;;;;;5.33;5.33;;;;;18.70;37.19;100475.84;5075836;28;46469;-63
2022/05/31 09:15:58;;;;;;;;;5.00;5.00;;;;;18.71;36.64;100485.53;5075548;28;45557;-63
2022/05/31 09:18:42;;;;;;;;;4.33;4.33;;;;;18.77;36.49;100476.28;5075904;28;45549;-63
2022/05/31 09:21:17;;;;;;;;;2.67;2.67;;;;;18.79;35.83;100479.69;5076020;28;45684;-62
2022/05/31 09:23:45;;;;;;;;;5.67;5.67;;;;;18.83;36.44;100485.66;5075531;28;46179;-63
2022/05/31 09:26:44;;;;;;;;;6.67;6.67;;;;;18.86;35.61;100488.97;5075582;28;45480;-63
2022/05/31 09:29:17;;;;;;;;;6.33;6.33;;;;;18.89;34.68;100485.22;5075755;28;45489;-62
2022/05/31 09:31:42;;;;;;;;;4.00;4.00;;;;;18.91;35.72;100483.28;5075670;28;45500;-63
2022/05/31 09:34:34;;;;;;;;;3.00;3.00;;;;;18.95;35.22;100490.13;5075628;28;46293;-62
2022/05/31 09:37:19;;;;;;;;;21.67;21.67;;;;;18.96;35.16;100481.16;5075702;28;45451;-63
2022/05/31 09:39:59;;;;;;;;;7.00;5.33;;;;;18.97;36.01;100477.53;5053521;28;45550;-62
2022/05/31 09:42:32;;;;;;;;;5.33;4.67;;;;;19.01;35.77;100479.00;5075411;28;45475;-62
2022/05/31 09:45:09;;;;;;;;;3.00;3.00;;;;;19.05;35.47;100483.16;5075535;28;46018;-62
2022/05/31 09:47:34;;;;;;;;;4.00;2.67;;;;;19.11;35.35;100479.19;5074824;28;45810;-62
2022/05/31 09:50:00;;;;;;;;;5.33;5.33;;;;;19.12;35.20;100475.56;5075665;28;45450;-62
2022/05/31 09:52:42;;;;;;;;;3.67;3.67;;;;;19.14;35.66;100473.63;5075357;28;45585;-63
2022/05/31 09:58:08;;;;;;;;;4.67;4.67;;;;;19.25;35.64;100478.19;5075212;28;45490;-63
2022/05/31 10:00:36;;;;;;;;;3.33;3.33;;;;;19.27;35.68;100476.25;5075268;28;45585;-62
2022/05/31 10:03:13;;;;;;;;;3.67;2.67;;;;;19.30;35.24;100468.03;5075143;28;45593;-63
2022/05/31 10:05:41;;;;;;;;;4.67;4.67;;;;;19.36;35.19;100467.56;5074673;28;45588;-62
2022/05/31 10:08:33;;;;;;;;;6.00;5.00;;;;;19.37;35.10;100471.91;5074007;28;45483;-63
2022/05/31 10:11:05;;;;;;;;;2.00;2.00;;;;;19.40;34.31;100471.72;5074573;28;45558;-63
2022/05/31 10:13:42;;;;;;;;;4.00;4.00;;;;;19.36;34.23;100457.75;5074726;28;45494;-63
2022/05/31 10:16:17;;;;;;;;;3.00;3.00;;;;;19.44;34.16;100475.84;5074460;28;46199;-63
2022/05/31 10:18:57;;;;;;;;;3.00;3.00;;;;;19.48;33.55;100466.66;5074661;27;45579;-61
2022/05/31 10:21:31;;;;;;;;;2.67;2.33;;;;;19.53;33.26;100469.84;5074663;28;45565;-62
2022/05/31 10:24:07;;;;;;;;;3.00;3.00;;;;;19.57;33.18;100465.97;5074555;28;45479;-61
2022/05/31 10:26:37;;;;;;;;;6.33;6.33;;;;;19.61;33.04;100466.56;5074239;28;46185;-61
2022/05/31 10:29:33;;;;;;;;;3.33;3.00;;;;;19.62;32.97;100465.63;5074127;28;45501;-62
2022/05/31 10:31:58;;;;;;;;;4.00;4.00;;;;;19.62;33.50;100462.97;5072893;28;45503;-62
2022/05/31 10:34:40;;;;;;;;;2.33;2.33;;;;;19.60;33.08;100456.88;5073852;28;45601;-62
2022/05/31 10:37:22;;;;;;;;;3.67;3.67;;;;;19.63;32.65;100467.31;5072426;28;46413;-62
2022/05/31 10:40:12;;;;;;;;;4.00;2.33;;;;;19.63;32.41;100465.50;5073831;28;45465;-63
2022/05/31 10:42:44;;;;;;;;;4.67;4.67;;;;;19.67;32.51;100474.16;5074256;28;45436;-63
2022/05/31 10:45:21;;;;;;;;;4.33;4.33;;;;;19.69;32.90;100468.69;5074062;28;45622;-63
2022/05/31 10:47:46;;;;;;;;;6.00;6.00;;;;;19.67;33.21;100454.66;5073362;28;46725;-62
2022/05/31 10:50:12;;;;;;;;;4.67;4.00;;;;;19.74;32.95;100467.38;5073548;28;45556;-62
2022/05/31 10:53:02;;;;;;;;;3.00;3.00;;;;;19.78;31.24;100471.53;5073789;28;45528;-63
2022/05/31 10:55:41;;;;;;;;;3.67;3.67;;;;;19.80;31.61;100460.72;5072434;28;45516;-62
2022/05/31 10:58:40;;;;;;;;;4.00;4.00;;;;;19.81;31.13;100476.63;5071821;28;47244;-63
2022/05/31 11:01:33;;;;;;;;;2.33;2.33;;;;;19.81;31.07;100473.97;5073580;28;45411;-62
2022/05/31 11:04:31;;;;;;;;;5.00;5.00;;;;;19.82;31.55;100481.00;5057351;28;45525;-63
2022/05/31 11:07:30;;;;;;;;;9.33;9.33;;;;;19.89;32.30;100472.53;5073665;28;45582;-62
2022/05/31 11:13:10;;;;;;;;;4.33;4.33;;;;;19.99;31.99;100470.88;5073553;28;45453;-63
2022/05/31 11:15:53;;;;;;;;;3.67;3.33;;;;;20.04;32.09;100474.00;5073678;28;45468;-63
2022/05/31 11:18:46;;;;;;;;;3.00;2.00;;;;;20.06;31.70;100475.59;5073563;28;45492;-62
2022/05/31 11:21:42;;;;;;;;;3.00;3.00;;;;;20.05;31.71;100476.56;5071798;28;48085;-62
2022/05/31 11:24:32;;;;;;;;;3.00;2.67;;;;;20.11;31.75;100475.25;5073075;27;45487;-62
2022/05/31 11:27:15;;;;;;;;;2.67;2.67;;;;;20.12;31.49;100476.94;5071875;28;45536;-62
2022/05/31 11:30:07;;;;;;;;;2.00;2.00;;;;;20.14;31.83;100475.00;5073196;28;45467;-62
2022/05/31 11:32:48;;;;;;;;;3.67;2.33;;;;;20.14;30.98;100476.84;5072601;28;47718;-61
2022/05/31 11:35:44;;;;;;;;;3.33;3.33;;;;;20.16;31.08;100470.41;5073101;28;45500;-63
2022/05/31 11:38:25;;;;;;;;;3.67;3.67;;;;;20.18;31.37;100479.16;5072919;28;45524;-63
2022/05/31 11:40:56;;;;;;;;;4.33;4.33;;;;;20.24;31.17;100483.16;5073187;28;45561;-63
2022/05/31 11:43:34;;;;;;;;;4.33;4.33;;;;;20.23;30.84;100479.66;5072989;28;46418;-62
2022/05/31 11:46:13;;;;;;;;;3.00;3.00;;;;;20.21;31.49;100486.06;5073318;28;45479;-63
2022/05/31 11:48:56;;;;;;;;;4.67;4.00;;;;;20.22;31.34;100487.78;5073362;28;45548;-63
2022/05/31 11:51:23;;;;;;;;;10.67;10.67;;;;;20.17;31.15;100474.75;5072015;28;46112;-63
2022/05/31 11:53:59;;;;;;;;;6.00;6.00;;;;;20.17;31.59;100472.09;5072818;28;45517;-62
2022/05/31 11:56:44;;;;;;;;;4.00;4.00;;;;;20.14;32.16;100483.00;5073065;28;45480;-63
2022/05/31 11:59:21;;;;;;;;;5.00;5.00;;;;;20.10;32.29;100470.03;5072975;28;45510;-62